ココス (キーリング) 諸島 の空港の天気 - METARとTAF

ココス島国際空港 ( YPCC / CCK ) - ココス諸島 ココス (キーリング) 諸島
飛行場実況気象(Metar)
観測時間02/01 15:30 CCT (02/01 09:00 UTC)
風向・風速南西 2m/s
視程10km以上
天気現象
全天の8割程度の雲 雲底高度 760m
全天を覆う雲 雲底高度 940m
全天を覆う雲 雲底高度 1070m
気温26℃
湿度89%
気圧1004hPa
METARYPCC 010900Z AUTO 22003KT 9999 // BKN025 OVC031 OVC035 26/24 Q1004
過去の天気等 Google飛行場航空写真 Wunderground天気予報

過去48時間のMETAR

飛行場予報(TAF)
発表時間: 2/01 12:08 CCT (2/01 05:38 UTC)
予報対象時間: 1日12時 CCT ~ 2日12時 CCT
風向・風速西北西 7m/s
視程10km以上
天気現象弱いしゅう雨
少しの雲 雲底高度 300m
全天の8割程度の雲 雲底高度 490m
2日0時 CCT から
風向・風速北西 5m/s
視程10km以上
天気現象運行に影響にある天気現象が終了
全天の4割程度の雲 雲底高度 610m
2日6時 CCT から
風向・風速北北西 5m/s
視程10km以上
天気現象弱いしゅう雨
少しの雲 雲底高度 300m
全天の4割程度の雲 雲底高度 490m
1日14時 CCT ~ 1日20時 CCT に一時的に
視程2000m
天気現象しゅう雨
全天の8割程度の雲 雲底高度 300m
全天の4割程度の塔状積雲 雲底高度 610m
TAF AMD YPCC 010538Z 0106/0206 30014KT 9999 -SHRA FEW010 BKN016
FM011800 32010KT 9999 NSW SCT020
FM020000 34010KT 9999 -SHRA FEW010 SCT016 INTER 0106/0108 4000 SHRA BKN012
TEMPO 0108/0114 2000 SHRA BKN010 SCT020TCU INTER 0114/0118 4000 SHRA BKN012 INTER 0202/0206 4000 SHRA BKN012